Etusivu
METAR-TAF:

METAR-TAF

Lentoasemat :

Ankara Esenboğa, Turkki

Leveyspiiri: 40-07N, Pituuspiiri: 032-59E, korkeus merenpinnasta: 953 m

Tämänhetkinen sää

Tämä raportti tehtiin 37 minuuttia sitten, kello 06.20 UTC
Tuuli 2 kn eri suunnista
Lämpötila -4°C
Kosteus 86%
Ilmanpaine 1020 hPa
Näkyvyys 10 km tai enemmän
ei pilviä alle 1500 m:ssä eikä cumulonimbus-pilviä

METAR: LTAC 200620Z VRB02KT CAVOK M04/M06 Q1020 NOSIG RMK RWY21L 08003KT RWY03L VRB01KT RWY21R 14003KT 090V190

Aika: 09:57 (06:57 UTC)

Sääennuste

Tämä raportti tehtiin 2 tuntia ja 17 minuuttia sitten, kello 04.40 UTC
Ennuste voimassa 20. päivästä klo 06 UTC - 21. päivään klo 06 UTC
Tuuli 2 kn eri suunnista
Näkyvyys 10 km tai enemmän
ei pilviä alle 1500 m:ssä eikä cumulonimbus-pilviä
Tulossa
20. päivästä klo 07 UTC - 20. päivään klo 09 UTC
Hajanaisia pilviä 4000 ft:n korkeudessa

TAF: LTAC 200440Z 2006/2106 VRB02KT CAVOK BECMG 2007/2009 SCT040

Säähavainnot ja -ennusteet yli 4000 lentoasemalta (METAR- ja TAF-raportit).

Käytössä olevat sääasemat on merkitty karttaan keltaisilla ja punaisilla pisteillä.

Aseta hiiri pisteen päälle nähdäksesi sääaseman nimen.

Klikkaa sitten nähdäksesi säähavainnot ja -ennusteet.

Kartan vaihtaminen: klikkaa mustalla rastilla varustettuja vihreitä pisteitä, niin voit zoomata sisään; viivalla varustettua vihreää pistettä, niin voit zoomata ulos tai vihreitä nuolia, niin pääset viereisille kartoille.


METAR-TAF: